createdAt,value
2022-11-05T00:01:06.411Z,84.33
2022-11-05T00:03:48.968Z,84.38
2022-11-05T00:06:31.539Z,84.36
2022-11-05T00:09:13.908Z,84.67
2022-11-05T00:11:56.187Z,84.66
2022-11-05T00:14:38.916Z,84.83
2022-11-05T00:17:05.618Z,84.89
2022-11-05T00:19:32.272Z,84.66
2022-11-05T00:22:14.580Z,83.78
2022-11-05T00:24:57.003Z,83.10
2022-11-05T00:27:23.864Z,82.72
2022-11-05T00:29:50.543Z,82.55
2022-11-05T00:32:17.234Z,82.19
2022-11-05T00:34:43.934Z,82.25
2022-11-05T00:37:10.842Z,82.13
2022-11-05T00:39:37.571Z,81.79
2022-11-05T00:42:19.907Z,81.80
2022-11-05T00:45:02.466Z,81.63
2022-11-05T00:47:46.734Z,81.24
2022-11-05T00:50:15.041Z,81.12
2022-11-05T00:52:57.821Z,80.93
2022-11-05T00:55:30.037Z,80.64
2022-11-05T00:57:58.009Z,80.45
2022-11-05T01:00:27.932Z,79.84
2022-11-05T01:02:58.676Z,78.78
2022-11-05T01:05:25.427Z,77.25
2022-11-05T01:07:53.564Z,76.84
2022-11-05T01:10:21.758Z,77.03
2022-11-05T01:12:49.655Z,77.13
2022-11-05T01:15:17.318Z,77.49
2022-11-05T01:17:44.028Z,77.97
2022-11-05T01:20:11.353Z,78.04
2022-11-05T01:22:38.193Z,78.49
2022-11-05T01:25:05.381Z,78.10
2022-11-05T01:27:32.108Z,78.25
2022-11-05T01:29:58.854Z,78.01
2022-11-05T01:32:25.603Z,77.55
2022-11-05T01:34:52.270Z,77.60
2022-11-05T01:37:19.009Z,77.80
2022-11-05T01:39:45.784Z,77.66
2022-11-05T01:42:19.880Z,77.90
2022-11-05T01:44:53.393Z,77.89
2022-11-05T01:47:39.191Z,78.17
2022-11-05T01:50:24.589Z,77.68
2022-11-05T01:52:56.205Z,77.75
2022-11-05T01:55:29.055Z,77.48
2022-11-05T01:57:58.143Z,77.19
2022-11-05T02:00:25.166Z,77.39
2022-11-05T02:02:52.160Z,77.05
2022-11-05T02:05:19.034Z,77.03
2022-11-05T02:07:47.597Z,77.52
2022-11-05T02:10:18.321Z,77.47
2022-11-05T02:12:48.311Z,77.36
2022-11-05T02:15:23.525Z,77.36
2022-11-05T02:17:55.388Z,77.34
2022-11-05T02:20:33.554Z,77.66
2022-11-05T02:23:30.707Z,77.89
2022-11-05T02:26:16.140Z,77.88
2022-11-05T02:29:04.630Z,77.95
2022-11-05T02:31:35.993Z,77.74
2022-11-05T02:34:23.160Z,77.64
2022-11-05T02:36:54.668Z,77.76
2022-11-05T02:39:51.793Z,77.83
2022-11-05T02:42:35.217Z,78.01
2022-11-05T02:45:17.454Z,77.81
2022-11-05T02:47:47.380Z,77.88
2022-11-05T02:50:22.585Z,77.83
2022-11-05T02:52:58.366Z,77.97
2022-11-05T02:55:33.100Z,77.85
2022-11-05T02:58:02.218Z,77.44
2022-11-05T03:00:47.009Z,77.15
2022-11-05T03:03:19.423Z,77.21
2022-11-05T03:06:00.184Z,77.50
2022-11-05T03:08:43.160Z,77.53
2022-11-05T03:11:16.675Z,77.53
2022-11-05T03:13:58.766Z,77.31
2022-11-05T03:16:39.101Z,76.89
2022-11-05T03:19:28.938Z,76.76
2022-11-05T03:22:01.673Z,76.84
2022-11-05T03:24:34.312Z,76.80
2022-11-05T03:27:07.332Z,76.82
2022-11-05T03:29:38.900Z,76.74
2022-11-05T03:32:08.157Z,76.83
2022-11-05T03:34:42.338Z,76.94
2022-11-05T03:37:09.635Z,76.90
2022-11-05T03:39:40.881Z,76.81
2022-11-05T03:42:11.651Z,77.07
2022-11-05T03:44:45.130Z,77.07
2022-11-05T03:47:18.960Z,77.12
2022-11-05T03:49:56.647Z,77.11
2022-11-05T03:52:27.953Z,77.03
2022-11-05T03:54:55.003Z,76.98
2022-11-05T03:57:31.668Z,77.10
2022-11-05T03:59:58.486Z,77.14
2022-11-05T04:02:26.804Z,77.14
2022-11-05T04:04:54.408Z,77.08
2022-11-05T04:07:36.508Z,76.89
2022-11-05T04:10:18.816Z,77.12
2022-11-05T04:13:01.273Z,77.19
2022-11-05T04:15:29.775Z,77.03
2022-11-05T04:17:59.028Z,77.25
2022-11-05T04:20:42.027Z,77.25
2022-11-05T04:23:25.398Z,77.28
2022-11-05T04:25:52.124Z,77.21
2022-11-05T04:28:19.091Z,77.52
2022-11-05T04:30:45.787Z,77.50
2022-11-05T04:33:15.383Z,77.91
2022-11-05T04:35:44.600Z,78.02
2022-11-05T04:38:16.251Z,78.29
2022-11-05T04:40:43.950Z,78.40
2022-11-05T04:43:15.331Z,78.61
2022-11-05T04:45:42.910Z,78.90
2022-11-05T04:48:10.768Z,79.12
2022-11-05T04:50:38.074Z,79.16
2022-11-05T04:53:04.753Z,79.30
2022-11-05T04:55:31.554Z,79.60
2022-11-05T04:57:58.263Z,79.58
2022-11-05T05:00:25.573Z,80.09
2022-11-05T05:02:52.328Z,80.38
2022-11-05T05:05:19.055Z,80.62
2022-11-05T05:07:45.798Z,80.88
2022-11-05T05:10:13.126Z,81.40
2022-11-05T05:12:39.947Z,81.76
2022-11-05T05:15:07.181Z,82.15
2022-11-05T05:17:34.171Z,82.34
2022-11-05T05:20:16.276Z,82.78
2022-11-05T05:22:43.006Z,83.17
2022-11-05T05:25:09.710Z,83.38
2022-11-05T05:27:36.529Z,83.75
2022-11-05T05:30:03.754Z,84.07
2022-11-05T05:32:30.491Z,84.37
2022-11-05T05:34:57.194Z,84.39
2022-11-05T05:37:23.941Z,84.50
2022-11-05T05:39:50.809Z,84.48
2022-11-05T05:42:17.544Z,84.55
2022-11-05T05:44:44.205Z,84.70
2022-11-05T05:47:10.944Z,84.70
2022-11-05T05:49:37.624Z,84.65
2022-11-05T05:52:04.559Z,84.90
2022-11-05T05:54:36.054Z,84.91
2022-11-05T05:57:06.594Z,84.66
2022-11-05T05:59:33.399Z,84.49
2022-11-05T06:02:00.881Z,84.50
2022-11-05T06:04:27.714Z,84.59
2022-11-05T06:06:54.433Z,84.40
2022-11-05T06:09:21.301Z,84.24
2022-11-05T06:11:48.084Z,83.83
2022-11-05T06:14:14.882Z,83.61
2022-11-05T06:16:41.578Z,83.24
2022-11-05T06:19:08.588Z,83.06
2022-11-05T06:21:35.761Z,82.82
2022-11-05T06:24:03.304Z,82.85
2022-11-05T06:26:30.500Z,82.91
2022-11-05T06:28:57.226Z,82.42
2022-11-05T06:31:24.418Z,82.12
2022-11-05T06:33:51.125Z,81.94
2022-11-05T06:36:19.700Z,81.88
2022-11-05T06:38:46.688Z,81.95
2022-11-05T06:41:13.671Z,81.78
2022-11-05T06:43:40.861Z,81.92
2022-11-05T06:46:08.002Z,81.86
2022-11-05T06:48:35.332Z,81.87
2022-11-05T06:51:03.234Z,81.58
2022-11-05T06:53:31.037Z,81.43
2022-11-05T06:55:57.776Z,81.50
2022-11-05T06:58:24.474Z,81.40
2022-11-05T07:00:51.591Z,81.68
2022-11-05T07:03:18.560Z,81.44
2022-11-05T07:05:48.325Z,81.33
2022-11-05T07:08:16.180Z,81.16
2022-11-05T07:10:43.050Z,81.14
2022-11-05T07:13:09.921Z,81.22
2022-11-05T07:15:38.147Z,81.18
2022-11-05T07:18:07.560Z,81.53
2022-11-05T07:20:35.032Z,81.34
2022-11-05T07:23:04.671Z,81.24
2022-11-05T07:25:32.721Z,81.03
2022-11-05T07:27:59.571Z,80.71
2022-11-05T07:30:26.883Z,80.82
2022-11-05T07:32:53.706Z,80.98
2022-11-05T07:35:20.758Z,80.88
2022-11-05T07:37:50.070Z,80.88
2022-11-05T07:40:19.495Z,80.67
2022-11-05T07:42:48.913Z,80.49
2022-11-05T07:45:17.819Z,80.37
2022-11-05T07:47:54.278Z,80.52
2022-11-05T07:50:23.529Z,80.28
2022-11-05T07:52:50.484Z,80.16
2022-11-05T07:55:18.765Z,80.57
2022-11-05T07:57:48.967Z,80.44
2022-11-05T08:00:18.413Z,80.38
2022-11-05T08:02:45.403Z,80.16
2022-11-05T08:05:12.264Z,79.92
2022-11-05T08:07:38.979Z,80.37
2022-11-05T08:10:06.285Z,80.13
2022-11-05T08:12:33.804Z,80.38
2022-11-05T08:15:00.520Z,80.23
2022-11-05T08:17:27.346Z,80.23
2022-11-05T08:19:54.090Z,80.07
2022-11-05T08:22:20.822Z,80.07
2022-11-05T08:24:47.579Z,79.80
2022-11-05T08:27:14.879Z,80.04
2022-11-05T08:29:41.750Z,80.20
2022-11-05T08:32:08.447Z,80.37
2022-11-05T08:34:35.231Z,80.71
2022-11-05T08:37:02.202Z,81.22
2022-11-05T08:39:28.965Z,81.30
2022-11-05T08:41:55.880Z,81.40
2022-11-05T08:44:22.771Z,81.18
2022-11-05T08:46:49.884Z,81.16
2022-11-05T08:49:17.171Z,81.24
2022-11-05T08:51:44.951Z,81.36
2022-11-05T08:54:12.008Z,81.84
2022-11-05T08:56:39.254Z,81.99
2022-11-05T08:59:06.352Z,82.01
2022-11-05T09:01:34.350Z,82.35
2022-11-05T09:04:01.393Z,82.67
2022-11-05T09:06:28.954Z,82.35
2022-11-05T09:08:56.085Z,82.52
2022-11-05T09:11:33.165Z,82.68
2022-11-05T09:14:09.867Z,82.96
2022-11-05T09:16:37.105Z,83.01
2022-11-05T09:19:05.003Z,83.12
2022-11-05T09:21:31.871Z,83.49
2022-11-05T09:23:58.616Z,83.58
2022-11-05T09:26:25.601Z,83.67
2022-11-05T09:28:52.345Z,83.19
2022-11-05T09:31:19.220Z,83.17
2022-11-05T09:33:45.922Z,83.18
2022-11-05T09:36:12.604Z,83.73
2022-11-05T09:38:39.681Z,83.84
2022-11-05T09:41:13.169Z,84.03
2022-11-05T09:43:46.224Z,83.94
2022-11-05T09:46:42.918Z,83.78
2022-11-05T09:49:22.936Z,83.23
2022-11-05T09:52:06.534Z,82.58
2022-11-05T09:54:33.528Z,82.54
2022-11-05T09:57:02.968Z,82.63
2022-11-05T09:59:37.589Z,82.70
2022-11-05T10:02:20.625Z,82.69
2022-11-05T10:05:09.984Z,83.00
2022-11-05T10:07:47.736Z,82.69
2022-11-05T10:10:30.043Z,81.96
2022-11-05T10:13:01.685Z,82.11
2022-11-05T10:15:34.296Z,82.08
2022-11-05T10:18:16.836Z,82.49
2022-11-05T10:20:44.992Z,83.15
2022-11-05T10:23:16.222Z,82.95
2022-11-05T10:25:46.662Z,83.15
2022-11-05T10:28:17.965Z,83.20
2022-11-05T10:30:46.939Z,82.80
2022-11-05T10:33:31.254Z,82.31
2022-11-05T10:36:04.714Z,82.21
2022-11-05T10:38:31.644Z,82.09
2022-11-05T10:41:07.140Z,82.47
2022-11-05T10:43:40.969Z,82.83
2022-11-05T10:46:07.627Z,83.06
2022-11-05T10:49:05.318Z,82.88
2022-11-05T10:51:33.014Z,82.59
2022-11-05T10:54:06.361Z,82.59
2022-11-05T10:56:37.568Z,82.36
2022-11-05T10:59:11.878Z,81.83
2022-11-05T11:01:39.253Z,82.11
2022-11-05T11:04:15.919Z,82.48
2022-11-05T11:06:49.782Z,82.49
2022-11-05T11:09:21.963Z,82.92
2022-11-05T11:12:01.076Z,82.57
2022-11-05T11:14:28.729Z,83.32
2022-11-05T11:16:58.979Z,83.29
2022-11-05T11:19:32.008Z,82.78
2022-11-05T11:22:06.404Z,82.64
2022-11-05T11:24:50.285Z,82.80
2022-11-05T11:27:22.580Z,83.24
2022-11-05T11:29:55.074Z,83.35
2022-11-05T11:32:22.363Z,83.25
2022-11-05T11:34:53.111Z,83.18
2022-11-05T11:37:26.650Z,83.26
2022-11-05T11:39:58.234Z,83.12
2022-11-05T11:42:29.183Z,82.97
2022-11-05T11:44:59.310Z,82.64
2022-11-05T11:47:29.244Z,82.26
2022-11-05T11:49:58.909Z,82.69
2022-11-05T11:52:29.606Z,83.04
2022-11-05T11:55:12.023Z,83.17
2022-11-05T11:58:04.993Z,82.87
2022-11-05T12:00:38.546Z,82.95
2022-11-05T12:03:21.730Z,82.88
2022-11-05T12:06:01.838Z,82.84
2022-11-05T12:08:45.505Z,82.38
2022-11-05T12:11:24.369Z,82.27
2022-11-05T12:13:59.768Z,82.50
2022-11-05T12:16:49.799Z,82.69
2022-11-05T12:19:29.118Z,83.33
2022-11-05T12:22:12.541Z,83.12
2022-11-05T12:25:03.868Z,83.39
2022-11-05T12:27:51.661Z,83.15
2022-11-05T12:30:21.119Z,83.08
2022-11-05T12:33:03.408Z,82.85
2022-11-05T12:35:44.185Z,82.56
2022-11-05T12:38:44.362Z,82.85
2022-11-05T12:41:18.631Z,83.17
2022-11-05T12:43:46.338Z,83.16
2022-11-05T12:46:24.842Z,83.37
2022-11-05T12:49:06.802Z,83.45
2022-11-05T12:51:51.532Z,83.70
2022-11-05T12:54:49.060Z,83.09
2022-11-05T12:57:17.771Z,82.89
2022-11-05T12:59:56.944Z,83.10
2022-11-05T13:02:34.523Z,82.97
2022-11-05T13:05:12.450Z,83.17
2022-11-05T13:07:44.920Z,82.90
2022-11-05T13:10:39.743Z,83.01
2022-11-05T13:13:11.897Z,82.58
2022-11-05T13:15:53.361Z,82.44
2022-11-05T13:18:28.169Z,81.86
2022-11-05T13:20:56.590Z,81.59
2022-11-05T13:23:44.240Z,81.70
2022-11-05T13:26:19.824Z,81.92
2022-11-05T13:28:57.360Z,82.27
2022-11-05T13:31:32.735Z,82.57
2022-11-05T13:34:04.521Z,81.83
2022-11-05T13:36:54.065Z,81.39
2022-11-05T13:39:26.815Z,81.26
2022-11-05T13:42:09.443Z,80.68
2022-11-05T13:44:47.516Z,80.54
2022-11-05T13:47:29.551Z,80.53
2022-11-05T13:50:27.242Z,80.39
2022-11-05T13:53:11.130Z,80.47
2022-11-05T13:55:51.377Z,80.78
2022-11-05T13:58:48.897Z,80.91
2022-11-05T14:01:30.905Z,80.92
2022-11-05T14:03:57.774Z,80.88
2022-11-05T14:06:29.877Z,81.01
2022-11-05T14:09:00.771Z,81.00
2022-11-05T14:11:33.259Z,80.59
2022-11-05T14:14:05.088Z,80.91
2022-11-05T14:16:48.449Z,80.89
2022-11-05T14:19:18.481Z,80.99
2022-11-05T14:22:21.017Z,80.77
2022-11-05T14:24:47.984Z,80.77
2022-11-05T14:27:14.642Z,81.06
2022-11-05T14:29:44.061Z,80.91
2022-11-05T14:32:19.237Z,80.75
2022-11-05T14:35:00.724Z,80.80
2022-11-05T14:37:32.424Z,80.75
2022-11-05T14:40:22.962Z,80.73
2022-11-05T14:42:53.047Z,80.81
2022-11-05T14:45:27.186Z,80.99
2022-11-05T14:47:56.692Z,81.15
2022-11-05T14:50:40.710Z,81.47
2022-11-05T14:53:26.337Z,81.52
2022-11-05T14:56:11.026Z,81.60
2022-11-05T14:58:40.183Z,81.63
2022-11-05T15:01:08.518Z,81.57
2022-11-05T15:03:45.504Z,81.49
2022-11-05T15:06:32.707Z,81.57
2022-11-05T15:09:19.222Z,81.79
2022-11-05T15:11:58.730Z,81.65
2022-11-05T15:14:32.226Z,81.83
2022-11-05T15:17:12.623Z,81.86
2022-11-05T15:19:41.825Z,81.96
2022-11-05T15:22:20.673Z,81.75
2022-11-05T15:24:47.813Z,81.61
2022-11-05T15:27:23.330Z,81.74
2022-11-05T15:29:50.248Z,81.71
2022-11-05T15:32:18.848Z,81.54
2022-11-05T15:34:54.695Z,81.45
2022-11-05T15:37:25.526Z,81.16
2022-11-05T15:39:54.702Z,81.13
2022-11-05T15:42:25.450Z,81.06
2022-11-05T15:44:55.934Z,81.09
2022-11-05T15:47:25.793Z,81.07
2022-11-05T15:50:01.336Z,80.91
2022-11-05T15:52:36.197Z,80.86
2022-11-05T15:55:19.996Z,80.91
2022-11-05T15:57:51.302Z,80.82
2022-11-05T16:00:18.422Z,80.78
2022-11-05T16:02:54.678Z,80.79
2022-11-05T16:05:22.487Z,80.52
2022-11-05T16:07:49.432Z,80.38
2022-11-05T16:10:20.952Z,80.49
2022-11-05T16:12:47.751Z,80.56
2022-11-05T16:15:14.408Z,80.48
2022-11-05T16:17:58.526Z,80.70
2022-11-05T16:20:35.371Z,80.51
2022-11-05T16:23:08.591Z,80.63
2022-11-05T16:25:39.601Z,80.52
2022-11-05T16:28:23.477Z,80.17
2022-11-05T16:30:53.626Z,80.24
2022-11-05T16:33:20.472Z,80.26
2022-11-05T16:35:49.799Z,80.39
2022-11-05T16:38:18.035Z,80.20
2022-11-05T16:40:44.872Z,80.13
2022-11-05T16:43:22.646Z,80.14
2022-11-05T16:45:49.768Z,79.69
2022-11-05T16:48:16.588Z,79.63
2022-11-05T16:50:43.528Z,79.62
2022-11-05T16:53:10.334Z,79.71
2022-11-05T16:55:39.730Z,79.72
2022-11-05T16:58:11.352Z,79.93
2022-11-05T17:00:38.821Z,80.07
2022-11-05T17:03:05.632Z,79.74
2022-11-05T17:05:32.580Z,79.66
2022-11-05T17:08:01.233Z,79.97
2022-11-05T17:10:27.990Z,79.75
2022-11-05T17:12:54.730Z,79.68
2022-11-05T17:15:27.419Z,79.62
2022-11-05T17:17:55.288Z,79.74
2022-11-05T17:20:28.772Z,79.58
2022-11-05T17:22:56.523Z,79.58
2022-11-05T17:25:23.771Z,79.51
2022-11-05T17:27:51.194Z,79.44
2022-11-05T17:30:18.226Z,79.49
2022-11-05T17:32:45.065Z,79.54
2022-11-05T17:35:12.427Z,79.60
2022-11-05T17:37:39.482Z,79.50
2022-11-05T17:40:08.996Z,79.67
2022-11-05T17:42:35.743Z,79.79
2022-11-05T17:45:02.661Z,79.47
2022-11-05T17:47:29.931Z,79.16
2022-11-05T17:49:56.818Z,79.10
2022-11-05T17:52:23.582Z,79.13
2022-11-05T17:54:50.576Z,79.40
2022-11-05T17:57:17.496Z,79.32
2022-11-05T17:59:44.677Z,79.55
2022-11-05T18:02:12.224Z,79.52
2022-11-05T18:04:39.760Z,79.54
2022-11-05T18:07:07.325Z,79.66
2022-11-05T18:09:34.114Z,79.79
2022-11-05T18:12:00.797Z,79.75
2022-11-05T18:14:27.490Z,79.85
2022-11-05T18:16:59.208Z,80.17
2022-11-05T18:19:27.875Z,80.06
2022-11-05T18:21:55.966Z,80.28
2022-11-05T18:24:22.907Z,80.28
2022-11-05T18:26:50.301Z,80.31
2022-11-05T18:29:17.192Z,80.24
2022-11-05T18:31:43.905Z,80.15
2022-11-05T18:34:11.692Z,80.05
2022-11-05T18:36:38.765Z,79.97
2022-11-05T18:39:06.952Z,79.96
2022-11-05T18:41:33.699Z,80.25
2022-11-05T18:44:01.914Z,80.47
2022-11-05T18:46:56.653Z,80.54
2022-11-05T18:49:16.813Z,80.53
2022-11-05T18:51:43.798Z,80.38
2022-11-05T18:54:10.545Z,79.98
2022-11-05T18:56:39.575Z,79.99
2022-11-05T18:59:34.677Z,79.87
2022-11-05T19:01:53.369Z,80.00
2022-11-05T19:04:20.799Z,80.02
2022-11-05T19:06:49.718Z,79.84
2022-11-05T19:09:16.672Z,79.73
2022-11-05T19:11:43.634Z,79.81
2022-11-05T19:14:10.312Z,79.97
2022-11-05T19:16:37.207Z,80.05
2022-11-05T19:19:05.243Z,80.19
2022-11-05T19:21:32.955Z,80.22
2022-11-05T19:24:17.086Z,80.25
2022-11-05T19:26:44.827Z,80.06
2022-11-05T19:29:11.791Z,80.06
2022-11-05T19:31:39.155Z,80.14
2022-11-05T19:34:21.593Z,80.21
2022-11-05T19:36:48.290Z,80.27
2022-11-05T19:39:15.477Z,80.43
2022-11-05T19:41:42.733Z,80.33
2022-11-05T19:44:10.491Z,80.67
2022-11-05T19:46:37.247Z,80.66
2022-11-05T19:49:04.016Z,80.63
2022-11-05T19:51:32.649Z,80.32
2022-11-05T19:54:01.041Z,80.50
2022-11-05T19:56:30.378Z,80.51
2022-11-05T19:58:58.894Z,80.49
2022-11-05T20:01:28.556Z,80.36
2022-11-05T20:03:57.592Z,80.45
2022-11-05T20:06:29.429Z,80.44
2022-11-05T20:09:20.628Z,80.41
2022-11-05T20:11:46.403Z,80.30
2022-11-05T20:14:13.455Z,80.26
2022-11-05T20:16:41.582Z,80.23
2022-11-05T20:19:11.620Z,80.36
2022-11-05T20:21:38.934Z,80.39
2022-11-05T20:24:06.259Z,80.49
2022-11-05T20:26:33.351Z,80.36
2022-11-05T20:29:01.156Z,80.36
2022-11-05T20:31:27.904Z,80.43
2022-11-05T20:33:54.647Z,80.37
2022-11-05T20:36:25.778Z,80.20
2022-11-05T20:38:55.425Z,80.08
2022-11-05T20:41:23.194Z,80.33
2022-11-05T20:43:50.112Z,80.24
2022-11-05T20:46:19.615Z,80.17
2022-11-05T20:48:46.601Z,80.34
2022-11-05T20:51:18.286Z,80.13
2022-11-05T20:53:48.385Z,79.98
2022-11-05T20:56:19.161Z,79.88
2022-11-05T20:58:46.954Z,79.90
2022-11-05T21:01:16.634Z,79.83
2022-11-05T21:03:44.780Z,79.91
2022-11-05T21:06:12.552Z,79.99
2022-11-05T21:08:55.675Z,79.82
2022-11-05T21:11:22.834Z,79.92
2022-11-05T21:13:49.626Z,79.89
2022-11-05T21:16:18.894Z,79.98
2022-11-05T21:18:46.797Z,80.07
2022-11-05T21:21:18.087Z,80.07
2022-11-05T21:23:44.811Z,80.08
2022-11-05T21:26:14.396Z,79.85
2022-11-05T21:28:41.930Z,79.91
2022-11-05T21:31:09.656Z,80.08
2022-11-05T21:33:36.362Z,80.05
2022-11-05T21:36:09.129Z,80.24
2022-11-05T21:38:35.984Z,80.24
2022-11-05T21:41:03.756Z,80.05
2022-11-05T21:43:30.614Z,79.99
2022-11-05T21:46:01.425Z,79.76
2022-11-05T21:48:28.390Z,79.60
2022-11-05T21:51:10.678Z,79.64
2022-11-05T21:53:53.995Z,79.45
2022-11-05T21:56:39.392Z,79.48
2022-11-05T21:59:23.940Z,79.46
2022-11-05T22:01:51.587Z,79.34
2022-11-05T22:04:18.728Z,79.23
2022-11-05T22:06:45.418Z,79.26
2022-11-05T22:09:12.108Z,79.37
2022-11-05T22:11:38.844Z,79.36
2022-11-05T22:14:05.784Z,79.32
2022-11-05T22:16:32.552Z,79.46
2022-11-05T22:18:59.917Z,79.52
2022-11-05T22:21:26.620Z,79.56
2022-11-05T22:23:53.636Z,79.44
2022-11-05T22:26:21.006Z,79.38
2022-11-05T22:28:47.915Z,79.51
2022-11-05T22:31:16.560Z,79.50
2022-11-05T22:33:43.988Z,79.58
2022-11-05T22:36:11.613Z,79.52
2022-11-05T22:38:39.030Z,79.52
2022-11-05T22:41:09.467Z,79.70
2022-11-05T22:43:36.547Z,79.67
2022-11-05T22:46:06.493Z,79.52
2022-11-05T22:48:35.154Z,79.42
2022-11-05T22:51:04.321Z,79.70
2022-11-05T22:53:31.567Z,79.71
2022-11-05T22:55:58.410Z,79.93
2022-11-05T22:58:25.229Z,79.87
2022-11-05T23:00:51.924Z,79.85
2022-11-05T23:03:19.093Z,79.72
2022-11-05T23:05:45.780Z,79.56
2022-11-05T23:08:28.050Z,79.44
2022-11-05T23:11:10.342Z,79.38
2022-11-05T23:13:37.056Z,79.40
2022-11-05T23:16:19.511Z,79.53
2022-11-05T23:19:02.342Z,79.59
2022-11-05T23:21:44.727Z,79.64
2022-11-05T23:24:13.288Z,79.66
2022-11-05T23:26:55.868Z,79.83
2022-11-05T23:29:25.894Z,79.88
2022-11-05T23:32:08.258Z,79.83
2022-11-05T23:34:35.539Z,79.77
2022-11-05T23:37:18.563Z,79.80
2022-11-05T23:39:45.283Z,79.80
2022-11-05T23:42:27.835Z,79.78
2022-11-05T23:45:14.427Z,79.81
2022-11-05T23:47:58.124Z,79.67
2022-11-05T23:50:26.124Z,79.83
2022-11-05T23:52:54.104Z,79.97
2022-11-05T23:55:22.210Z,79.99
2022-11-05T23:57:49.712Z,80.02
